sensor_id;sensor_type;location;lat;lon;timestamp;P1;durP1;ratioP1;P2;durP2;ratioP2
69937;SDS011;57248;47.320;15.998;2023-05-10T00:00:46;7.13;;;3.00;;
69937;SDS011;57248;47.320;15.998;2023-05-10T00:03:18;8.35;;;3.08;;
69937;SDS011;57248;47.320;15.998;2023-05-10T00:05:50;7.97;;;2.83;;
69937;SDS011;57248;47.320;15.998;2023-05-10T00:08:22;8.07;;;3.13;;
69937;SDS011;57248;47.320;15.998;2023-05-10T00:10:54;6.82;;;2.90;;
69937;SDS011;57248;47.320;15.998;2023-05-10T00:13:26;7.55;;;2.88;;
69937;SDS011;57248;47.320;15.998;2023-05-10T00:15:58;6.15;;;2.33;;
69937;SDS011;57248;47.320;15.998;2023-05-10T00:18:30;6.60;;;2.88;;
69937;SDS011;57248;47.320;15.998;2023-05-10T00:21:09;7.77;;;2.97;;
69937;SDS011;57248;47.320;15.998;2023-05-10T00:23:41;8.13;;;2.90;;
69937;SDS011;57248;47.320;15.998;2023-05-10T00:26:20;6.95;;;2.70;;
69937;SDS011;57248;47.320;15.998;2023-05-10T00:28:54;7.70;;;2.95;;
69937;SDS011;57248;47.320;15.998;2023-05-10T00:31:27;7.35;;;2.80;;
69937;SDS011;57248;47.320;15.998;2023-05-10T00:33:52;6.63;;;2.63;;
69937;SDS011;57248;47.320;15.998;2023-05-10T00:36:25;9.35;;;3.17;;
69937;SDS011;57248;47.320;15.998;2023-05-10T00:38:57;7.67;;;3.33;;
69937;SDS011;57248;47.320;15.998;2023-05-10T00:41:29;7.13;;;3.10;;
69937;SDS011;57248;47.320;15.998;2023-05-10T00:44:06;6.72;;;3.00;;
69937;SDS011;57248;47.320;15.998;2023-05-10T00:46:38;8.50;;;3.10;;
69937;SDS011;57248;47.320;15.998;2023-05-10T00:49:10;8.65;;;3.58;;
69937;SDS011;57248;47.320;15.998;2023-05-10T00:51:35;8.37;;;3.13;;
69937;SDS011;57248;47.320;15.998;2023-05-10T00:54:09;9.35;;;3.28;;
69937;SDS011;57248;47.320;15.998;2023-05-10T00:56:43;8.55;;;3.75;;
69937;SDS011;57248;47.320;15.998;2023-05-10T00:59:20;7.90;;;3.30;;
69937;SDS011;57248;47.320;15.998;2023-05-10T01:01:53;7.87;;;3.10;;
69937;SDS011;57248;47.320;15.998;2023-05-10T01:04:25;8.95;;;3.45;;
69937;SDS011;57248;47.320;15.998;2023-05-10T01:06:57;8.32;;;3.40;;
69937;SDS011;57248;47.320;15.998;2023-05-10T01:09:29;8.63;;;3.53;;
69937;SDS011;57248;47.320;15.998;2023-05-10T01:12:02;9.75;;;3.70;;
69937;SDS011;57248;47.320;15.998;2023-05-10T01:14:35;7.90;;;3.30;;
69937;SDS011;57248;47.320;15.998;2023-05-10T01:17:08;8.23;;;3.33;;
69937;SDS011;57248;47.320;15.998;2023-05-10T01:19:42;8.80;;;3.50;;
69937;SDS011;57248;47.320;15.998;2023-05-10T01:25:16;7.65;;;3.00;;
69937;SDS011;57248;47.320;15.998;2023-05-10T01:31:18;7.72;;;3.17;;
69937;SDS011;57248;47.320;15.998;2023-05-10T01:34:08;8.52;;;3.13;;
69937;SDS011;57248;47.320;15.998;2023-05-10T01:37:02;6.57;;;2.92;;
69937;SDS011;57248;47.320;15.998;2023-05-10T01:39:49;8.55;;;3.00;;
69937;SDS011;57248;47.320;15.998;2023-05-10T01:42:44;7.80;;;3.20;;
69937;SDS011;57248;47.320;15.998;2023-05-10T01:45:23;8.68;;;3.20;;
69937;SDS011;57248;47.320;15.998;2023-05-10T01:48:09;8.43;;;3.30;;
69937;SDS011;57248;47.320;15.998;2023-05-10T01:50:43;7.72;;;3.40;;
69937;SDS011;57248;47.320;15.998;2023-05-10T01:53:17;14.57;;;3.75;;
69937;SDS011;57248;47.320;15.998;2023-05-10T01:55:52;8.87;;;3.63;;
69937;SDS011;57248;47.320;15.998;2023-05-10T01:58:27;9.02;;;3.80;;
69937;SDS011;57248;47.320;15.998;2023-05-10T02:01:03;7.93;;;3.40;;
69937;SDS011;57248;47.320;15.998;2023-05-10T02:03:36;8.15;;;3.15;;
69937;SDS011;57248;47.320;15.998;2023-05-10T02:06:10;8.43;;;3.38;;
69937;SDS011;57248;47.320;15.998;2023-05-10T02:08:44;9.43;;;3.27;;
69937;SDS011;57248;47.320;15.998;2023-05-10T02:11:18;8.93;;;3.45;;
69937;SDS011;57248;47.320;15.998;2023-05-10T02:13:53;8.35;;;3.60;;
69937;SDS011;57248;47.320;15.998;2023-05-10T02:16:28;8.10;;;3.17;;
69937;SDS011;57248;47.320;15.998;2023-05-10T02:19:02;8.18;;;3.38;;
69937;SDS011;57248;47.320;15.998;2023-05-10T02:21:37;8.30;;;3.43;;
69937;SDS011;57248;47.320;15.998;2023-05-10T02:24:10;7.90;;;3.35;;
69937;SDS011;57248;47.320;15.998;2023-05-10T02:26:50;9.90;;;3.60;;
69937;SDS011;57248;47.320;15.998;2023-05-10T02:29:25;9.65;;;3.28;;
69937;SDS011;57248;47.320;15.998;2023-05-10T02:31:59;8.80;;;3.50;;
69937;SDS011;57248;47.320;15.998;2023-05-10T02:34:32;8.07;;;2.97;;
69937;SDS011;57248;47.320;15.998;2023-05-10T02:37:05;7.63;;;2.85;;
69937;SDS011;57248;47.320;15.998;2023-05-10T02:39:38;8.15;;;3.20;;
69937;SDS011;57248;47.320;15.998;2023-05-10T02:42:18;8.55;;;3.60;;
69937;SDS011;57248;47.320;15.998;2023-05-10T02:44:55;7.25;;;3.10;;
69937;SDS011;57248;47.320;15.998;2023-05-10T02:47:31;11.17;;;3.67;;
69937;SDS011;57248;47.320;15.998;2023-05-10T02:50:03;8.55;;;3.30;;
69937;SDS011;57248;47.320;15.998;2023-05-10T02:52:42;8.93;;;3.60;;
69937;SDS011;57248;47.320;15.998;2023-05-10T02:55:19;8.68;;;3.40;;
69937;SDS011;57248;47.320;15.998;2023-05-10T02:57:57;9.00;;;3.58;;
69937;SDS011;57248;47.320;15.998;2023-05-10T03:00:31;12.07;;;3.30;;
69937;SDS011;57248;47.320;15.998;2023-05-10T03:03:03;8.32;;;3.47;;
69937;SDS011;57248;47.320;15.998;2023-05-10T03:05:36;7.68;;;2.75;;
69937;SDS011;57248;47.320;15.998;2023-05-10T03:08:08;8.68;;;3.28;;
69937;SDS011;57248;47.320;15.998;2023-05-10T03:10:41;9.35;;;3.85;;
69937;SDS011;57248;47.320;15.998;2023-05-10T03:13:28;9.30;;;3.83;;
69937;SDS011;57248;47.320;15.998;2023-05-10T03:16:12;8.82;;;3.17;;
69937;SDS011;57248;47.320;15.998;2023-05-10T03:18:50;8.77;;;3.70;;
69937;SDS011;57248;47.320;15.998;2023-05-10T03:21:28;8.98;;;3.47;;
69937;SDS011;57248;47.320;15.998;2023-05-10T03:24:05;10.18;;;3.90;;
69937;SDS011;57248;47.320;15.998;2023-05-10T03:26:39;10.40;;;3.70;;
69937;SDS011;57248;47.320;15.998;2023-05-10T03:29:16;8.68;;;3.70;;
69937;SDS011;57248;47.320;15.998;2023-05-10T03:31:49;8.52;;;3.63;;
69937;SDS011;57248;47.320;15.998;2023-05-10T03:34:24;10.00;;;3.75;;
69937;SDS011;57248;47.320;15.998;2023-05-10T03:36:57;10.05;;;4.07;;
69937;SDS011;57248;47.320;15.998;2023-05-10T03:39:30;10.33;;;4.10;;
69937;SDS011;57248;47.320;15.998;2023-05-10T03:42:07;10.45;;;4.38;;
69937;SDS011;57248;47.320;15.998;2023-05-10T03:44:39;8.60;;;3.60;;
69937;SDS011;57248;47.320;15.998;2023-05-10T03:47:12;8.52;;;3.33;;
69937;SDS011;57248;47.320;15.998;2023-05-10T03:49:44;8.65;;;3.42;;
69937;SDS011;57248;47.320;15.998;2023-05-10T03:52:16;9.00;;;3.90;;
69937;SDS011;57248;47.320;15.998;2023-05-10T03:54:48;11.95;;;4.63;;
69937;SDS011;57248;47.320;15.998;2023-05-10T03:57:20;10.02;;;4.30;;
69937;SDS011;57248;47.320;15.998;2023-05-10T03:59:52;10.38;;;4.28;;
69937;SDS011;57248;47.320;15.998;2023-05-10T04:02:24;10.75;;;4.38;;
69937;SDS011;57248;47.320;15.998;2023-05-10T04:04:56;10.87;;;4.30;;
69937;SDS011;57248;47.320;15.998;2023-05-10T04:07:28;11.80;;;5.07;;
69937;SDS011;57248;47.320;15.998;2023-05-10T04:10:02;11.25;;;4.88;;
69937;SDS011;57248;47.320;15.998;2023-05-10T04:12:35;10.82;;;5.68;;
69937;SDS011;57248;47.320;15.998;2023-05-10T04:15:08;12.98;;;5.88;;
69937;SDS011;57248;47.320;15.998;2023-05-10T04:17:40;9.57;;;4.40;;
69937;SDS011;57248;47.320;15.998;2023-05-10T04:20:12;9.07;;;4.28;;
69937;SDS011;57248;47.320;15.998;2023-05-10T04:22:51;10.02;;;4.00;;
69937;SDS011;57248;47.320;15.998;2023-05-10T04:25:23;9.25;;;4.30;;
69937;SDS011;57248;47.320;15.998;2023-05-10T04:27:55;10.02;;;4.43;;
69937;SDS011;57248;47.320;15.998;2023-05-10T04:30:28;11.87;;;5.67;;
69937;SDS011;57248;47.320;15.998;2023-05-10T04:33:01;12.77;;;6.20;;
69937;SDS011;57248;47.320;15.998;2023-05-10T04:35:33;12.32;;;5.78;;
69937;SDS011;57248;47.320;15.998;2023-05-10T04:37:59;13.23;;;6.38;;
69937;SDS011;57248;47.320;15.998;2023-05-10T04:40:31;18.67;;;7.07;;
69937;SDS011;57248;47.320;15.998;2023-05-10T04:43:03;10.23;;;6.07;;
69937;SDS011;57248;47.320;15.998;2023-05-10T04:45:35;11.05;;;5.47;;
69937;SDS011;57248;47.320;15.998;2023-05-10T04:48:00;11.63;;;5.40;;
69937;SDS011;57248;47.320;15.998;2023-05-10T04:50:33;12.65;;;6.15;;
69937;SDS011;57248;47.320;15.998;2023-05-10T04:53:05;11.77;;;4.82;;
69937;SDS011;57248;47.320;15.998;2023-05-10T04:55:37;12.43;;;5.10;;
69937;SDS011;57248;47.320;15.998;2023-05-10T04:58:10;11.73;;;5.25;;
69937;SDS011;57248;47.320;15.998;2023-05-10T05:00:42;10.17;;;4.70;;
69937;SDS011;57248;47.320;15.998;2023-05-10T05:03:14;9.07;;;4.60;;
69937;SDS011;57248;47.320;15.998;2023-05-10T05:05:46;10.20;;;5.05;;
69937;SDS011;57248;47.320;15.998;2023-05-10T05:08:11;8.53;;;4.30;;
69937;SDS011;57248;47.320;15.998;2023-05-10T05:10:44;12.27;;;5.20;;
69937;SDS011;57248;47.320;15.998;2023-05-10T05:13:16;10.90;;;5.15;;
69937;SDS011;57248;47.320;15.998;2023-05-10T05:15:48;9.27;;;4.72;;
69937;SDS011;57248;47.320;15.998;2023-05-10T05:18:20;9.43;;;4.90;;
69937;SDS011;57248;47.320;15.998;2023-05-10T05:20:53;11.05;;;4.50;;
69937;SDS011;57248;47.320;15.998;2023-05-10T05:23:25;10.38;;;4.45;;
69937;SDS011;57248;47.320;15.998;2023-05-10T05:26:13;9.40;;;4.53;;
69937;SDS011;57248;47.320;15.998;2023-05-10T05:28:46;11.52;;;4.13;;
69937;SDS011;57248;47.320;15.998;2023-05-10T05:31:13;8.70;;;4.30;;
69937;SDS011;57248;47.320;15.998;2023-05-10T05:33:45;8.30;;;4.30;;
69937;SDS011;57248;47.320;15.998;2023-05-10T05:36:17;12.02;;;4.95;;
69937;SDS011;57248;47.320;15.998;2023-05-10T05:38:49;10.15;;;4.95;;
69937;SDS011;57248;47.320;15.998;2023-05-10T05:41:21;12.88;;;6.57;;
69937;SDS011;57248;47.320;15.998;2023-05-10T05:43:53;9.53;;;4.93;;
69937;SDS011;57248;47.320;15.998;2023-05-10T05:46:25;10.65;;;4.47;;
69937;SDS011;57248;47.320;15.998;2023-05-10T05:48:57;9.02;;;4.60;;
69937;SDS011;57248;47.320;15.998;2023-05-10T05:51:29;9.38;;;4.45;;
69937;SDS011;57248;47.320;15.998;2023-05-10T05:54:01;8.27;;;4.00;;
69937;SDS011;57248;47.320;15.998;2023-05-10T05:56:35;9.13;;;4.33;;
69937;SDS011;57248;47.320;15.998;2023-05-10T05:59:07;8.00;;;4.18;;
69937;SDS011;57248;47.320;15.998;2023-05-10T06:01:39;9.55;;;5.05;;
69937;SDS011;57248;47.320;15.998;2023-05-10T06:04:04;7.30;;;4.30;;
69937;SDS011;57248;47.320;15.998;2023-05-10T06:06:36;9.40;;;4.47;;
69937;SDS011;57248;47.320;15.998;2023-05-10T06:09:08;9.30;;;4.53;;
69937;SDS011;57248;47.320;15.998;2023-05-10T06:11:41;8.32;;;4.07;;
69937;SDS011;57248;47.320;15.998;2023-05-10T06:14:13;6.83;;;3.83;;
69937;SDS011;57248;47.320;15.998;2023-05-10T06:16:39;8.07;;;4.50;;
69937;SDS011;57248;47.320;15.998;2023-05-10T06:19:11;7.40;;;4.25;;
69937;SDS011;57248;47.320;15.998;2023-05-10T06:21:43;7.32;;;4.32;;
69937;SDS011;57248;47.320;15.998;2023-05-10T06:24:15;6.77;;;4.30;;
69937;SDS011;57248;47.320;15.998;2023-05-10T06:26:54;7.72;;;4.15;;
69937;SDS011;57248;47.320;15.998;2023-05-10T06:29:26;7.28;;;4.25;;
69937;SDS011;57248;47.320;15.998;2023-05-10T06:31:59;9.20;;;4.95;;
69937;SDS011;57248;47.320;15.998;2023-05-10T06:34:31;8.43;;;4.38;;
69937;SDS011;57248;47.320;15.998;2023-05-10T06:37:04;7.10;;;4.00;;
69937;SDS011;57248;47.320;15.998;2023-05-10T06:39:36;8.13;;;4.10;;
69937;SDS011;57248;47.320;15.998;2023-05-10T06:42:09;8.13;;;4.70;;
69937;SDS011;57248;47.320;15.998;2023-05-10T06:44:45;7.53;;;4.60;;
69937;SDS011;57248;47.320;15.998;2023-05-10T06:47:17;7.35;;;4.43;;
69937;SDS011;57248;47.320;15.998;2023-05-10T06:49:49;8.40;;;3.50;;
69937;SDS011;57248;47.320;15.998;2023-05-10T06:52:21;8.50;;;3.67;;
69937;SDS011;57248;47.320;15.998;2023-05-10T06:54:54;7.38;;;3.50;;
69937;SDS011;57248;47.320;15.998;2023-05-10T06:57:26;9.82;;;4.20;;
69937;SDS011;57248;47.320;15.998;2023-05-10T06:59:59;7.40;;;4.22;;
69937;SDS011;57248;47.320;15.998;2023-05-10T07:02:31;8.23;;;3.70;;
69937;SDS011;57248;47.320;15.998;2023-05-10T07:04:56;7.20;;;3.90;;
69937;SDS011;57248;47.320;15.998;2023-05-10T07:07:29;7.25;;;4.47;;
69937;SDS011;57248;47.320;15.998;2023-05-10T07:10:01;12.83;;;4.67;;
69937;SDS011;57248;47.320;15.998;2023-05-10T07:12:34;7.15;;;4.13;;
69937;SDS011;57248;47.320;15.998;2023-05-10T07:15:06;8.00;;;4.93;;
69937;SDS011;57248;47.320;15.998;2023-05-10T07:17:39;8.02;;;4.53;;
69937;SDS011;57248;47.320;15.998;2023-05-10T07:20:11;11.02;;;5.22;;
69937;SDS011;57248;47.320;15.998;2023-05-10T07:22:43;10.57;;;5.47;;
69937;SDS011;57248;47.320;15.998;2023-05-10T07:25:17;7.90;;;5.53;;
69937;SDS011;57248;47.320;15.998;2023-05-10T07:27:49;9.05;;;6.05;;
69937;SDS011;57248;47.320;15.998;2023-05-10T07:30:22;6.97;;;5.32;;
69937;SDS011;57248;47.320;15.998;2023-05-10T07:32:54;9.38;;;5.97;;
69937;SDS011;57248;47.320;15.998;2023-05-10T07:35:26;7.97;;;5.67;;
69937;SDS011;57248;47.320;15.998;2023-05-10T07:37:58;9.90;;;6.82;;
69937;SDS011;57248;47.320;15.998;2023-05-10T07:40:31;9.57;;;6.63;;
69937;SDS011;57248;47.320;15.998;2023-05-10T07:43:03;7.85;;;5.90;;
69937;SDS011;57248;47.320;15.998;2023-05-10T07:45:35;8.20;;;6.45;;
69937;SDS011;57248;47.320;15.998;2023-05-10T07:48:07;8.20;;;6.97;;
69937;SDS011;57248;47.320;15.998;2023-05-10T07:50:39;7.68;;;6.40;;
69937;SDS011;57248;47.320;15.998;2023-05-10T07:53:11;8.05;;;7.25;;
69937;SDS011;57248;47.320;15.998;2023-05-10T07:55:43;12.15;;;7.90;;
69937;SDS011;57248;47.320;15.998;2023-05-10T07:58:15;9.15;;;6.80;;
69937;SDS011;57248;47.320;15.998;2023-05-10T08:00:47;11.23;;;7.63;;
69937;SDS011;57248;47.320;15.998;2023-05-10T08:03:20;9.85;;;6.95;;
69937;SDS011;57248;47.320;15.998;2023-05-10T08:05:52;9.35;;;7.30;;
69937;SDS011;57248;47.320;15.998;2023-05-10T08:08:24;8.20;;;7.30;;
69937;SDS011;57248;47.320;15.998;2023-05-10T08:10:56;10.88;;;7.32;;
69937;SDS011;57248;47.320;15.998;2023-05-10T08:13:28;7.80;;;5.80;;
69937;SDS011;57248;47.320;15.998;2023-05-10T08:16:00;8.30;;;5.80;;
69937;SDS011;57248;47.320;15.998;2023-05-10T08:18:32;7.53;;;6.00;;
69937;SDS011;57248;47.320;15.998;2023-05-10T08:21:04;7.78;;;6.20;;
69937;SDS011;57248;47.320;15.998;2023-05-10T08:23:43;7.82;;;7.03;;
69937;SDS011;57248;47.320;15.998;2023-05-10T08:26:15;7.90;;;7.10;;
69937;SDS011;57248;47.320;15.998;2023-05-10T08:28:55;8.95;;;7.40;;
69937;SDS011;57248;47.320;15.998;2023-05-10T08:31:27;8.27;;;6.60;;
69937;SDS011;57248;47.320;15.998;2023-05-10T08:34:00;8.10;;;7.30;;
69937;SDS011;57248;47.320;15.998;2023-05-10T08:36:32;6.70;;;6.00;;
69937;SDS011;57248;47.320;15.998;2023-05-10T08:39:04;8.43;;;5.90;;
69937;SDS011;57248;47.320;15.998;2023-05-10T08:41:37;8.65;;;7.40;;
69937;SDS011;57248;47.320;15.998;2023-05-10T08:44:10;7.90;;;6.22;;
69937;SDS011;57248;47.320;15.998;2023-05-10T08:46:42;7.60;;;5.82;;
69937;SDS011;57248;47.320;15.998;2023-05-10T08:49:17;7.95;;;6.70;;
69937;SDS011;57248;47.320;15.998;2023-05-10T08:51:51;8.60;;;7.70;;
69937;SDS011;57248;47.320;15.998;2023-05-10T08:54:29;8.27;;;7.15;;
69937;SDS011;57248;47.320;15.998;2023-05-10T08:57:03;8.68;;;7.88;;
69937;SDS011;57248;47.320;15.998;2023-05-10T08:59:36;8.88;;;7.97;;
69937;SDS011;57248;47.320;15.998;2023-05-10T09:02:11;9.48;;;8.57;;
69937;SDS011;57248;47.320;15.998;2023-05-10T09:04:44;7.70;;;6.90;;
69937;SDS011;57248;47.320;15.998;2023-05-10T09:07:17;7.93;;;7.22;;
69937;SDS011;57248;47.320;15.998;2023-05-10T09:09:50;8.27;;;7.47;;
69937;SDS011;57248;47.320;15.998;2023-05-10T09:12:23;6.28;;;5.22;;
69937;SDS011;57248;47.320;15.998;2023-05-10T09:14:55;6.18;;;4.25;;
69937;SDS011;57248;47.320;15.998;2023-05-10T09:17:27;5.53;;;3.90;;
69937;SDS011;57248;47.320;15.998;2023-05-10T09:20:01;5.38;;;4.20;;
69937;SDS011;57248;47.320;15.998;2023-05-10T09:22:41;5.22;;;4.05;;
69937;SDS011;57248;47.320;15.998;2023-05-10T09:25:13;7.32;;;5.68;;
69937;SDS011;57248;47.320;15.998;2023-05-10T09:27:54;7.88;;;7.07;;
69937;SDS011;57248;47.320;15.998;2023-05-10T09:30:30;7.47;;;6.80;;
69937;SDS011;57248;47.320;15.998;2023-05-10T09:33:02;8.98;;;6.60;;
69937;SDS011;57248;47.320;15.998;2023-05-10T09:35:35;7.95;;;6.80;;
69937;SDS011;57248;47.320;15.998;2023-05-10T09:38:07;8.48;;;7.00;;
69937;SDS011;57248;47.320;15.998;2023-05-10T09:40:39;8.48;;;7.68;;
69937;SDS011;57248;47.320;15.998;2023-05-10T09:43:11;7.97;;;7.17;;
69937;SDS011;57248;47.320;15.998;2023-05-10T09:45:47;8.50;;;7.68;;
69937;SDS011;57248;47.320;15.998;2023-05-10T09:48:23;7.47;;;6.78;;
69937;SDS011;57248;47.320;15.998;2023-05-10T09:50:58;8.45;;;6.68;;
69937;SDS011;57248;47.320;15.998;2023-05-10T09:53:32;6.93;;;5.90;;
69937;SDS011;57248;47.320;15.998;2023-05-10T09:56:04;8.43;;;6.83;;
69937;SDS011;57248;47.320;15.998;2023-05-10T09:58:36;6.82;;;6.00;;
69937;SDS011;57248;47.320;15.998;2023-05-10T10:01:11;8.20;;;7.40;;
69937;SDS011;57248;47.320;15.998;2023-05-10T10:03:46;8.13;;;7.32;;
69937;SDS011;57248;47.320;15.998;2023-05-10T10:06:18;7.70;;;7.00;;
69937;SDS011;57248;47.320;15.998;2023-05-10T10:08:51;7.57;;;6.43;;
69937;SDS011;57248;47.320;15.998;2023-05-10T10:11:24;7.43;;;6.72;;
69937;SDS011;57248;47.320;15.998;2023-05-10T10:13:56;8.02;;;7.25;;
69937;SDS011;57248;47.320;15.998;2023-05-10T10:16:28;6.80;;;6.20;;
69937;SDS011;57248;47.320;15.998;2023-05-10T10:19:01;8.38;;;7.57;;
69937;SDS011;57248;47.320;15.998;2023-05-10T10:21:33;7.10;;;6.40;;
69937;SDS011;57248;47.320;15.998;2023-05-10T10:24:12;8.00;;;6.53;;
69937;SDS011;57248;47.320;15.998;2023-05-10T10:26:44;6.18;;;5.57;;
69937;SDS011;57248;47.320;15.998;2023-05-10T10:29:26;5.40;;;4.07;;
69937;SDS011;57248;47.320;15.998;2023-05-10T10:34:39;8.57;;;7.70;;
69937;SDS011;57248;47.320;15.998;2023-05-10T10:37:12;8.75;;;7.93;;
69937;SDS011;57248;47.320;15.998;2023-05-10T10:39:44;7.80;;;7.07;;
69937;SDS011;57248;47.320;15.998;2023-05-10T10:43:20;5.80;;;4.97;;
69937;SDS011;57248;47.320;15.998;2023-05-10T10:45:16;6.72;;;4.07;;
69937;SDS011;57248;47.320;15.998;2023-05-10T10:47:53;5.37;;;4.10;;
69937;SDS011;57248;47.320;15.998;2023-05-10T10:50:45;5.90;;;4.97;;
69937;SDS011;57248;47.320;15.998;2023-05-10T10:53:18;6.40;;;4.20;;
69937;SDS011;57248;47.320;15.998;2023-05-10T10:55:55;5.57;;;4.38;;
69937;SDS011;57248;47.320;15.998;2023-05-10T10:58:38;5.78;;;3.97;;
69937;SDS011;57248;47.320;15.998;2023-05-10T11:06:33;5.82;;;4.35;;
69937;SDS011;57248;47.320;15.998;2023-05-10T11:09:07;5.40;;;4.65;;
69937;SDS011;57248;47.320;15.998;2023-05-10T11:11:49;6.38;;;5.72;;
69937;SDS011;57248;47.320;15.998;2023-05-10T11:14:23;6.43;;;5.60;;
69937;SDS011;57248;47.320;15.998;2023-05-10T11:16:55;7.07;;;6.38;;
69937;SDS011;57248;47.320;15.998;2023-05-10T11:19:27;7.25;;;6.65;;
69937;SDS011;57248;47.320;15.998;2023-05-10T11:24:37;5.85;;;5.25;;
69937;SDS011;57248;47.320;15.998;2023-05-10T11:27:16;5.17;;;4.60;;
69937;SDS011;57248;47.320;15.998;2023-05-10T11:29:53;4.65;;;3.90;;
69937;SDS011;57248;47.320;15.998;2023-05-10T11:32:25;5.60;;;5.10;;
69937;SDS011;57248;47.320;15.998;2023-05-10T11:34:51;5.30;;;4.73;;
69937;SDS011;57248;47.320;15.998;2023-05-10T11:37:23;6.23;;;4.13;;
69937;SDS011;57248;47.320;15.998;2023-05-10T11:39:55;5.57;;;3.75;;
69937;SDS011;57248;47.320;15.998;2023-05-10T11:42:27;3.92;;;3.47;;
69937;SDS011;57248;47.320;15.998;2023-05-10T11:44:53;5.03;;;3.47;;
69937;SDS011;57248;47.320;15.998;2023-05-10T11:47:26;4.00;;;3.22;;
69937;SDS011;57248;47.320;15.998;2023-05-10T11:49:58;4.13;;;3.33;;
69937;SDS011;57248;47.320;15.998;2023-05-10T11:52:35;5.13;;;4.63;;
69937;SDS011;57248;47.320;15.998;2023-05-10T11:55:08;6.20;;;5.70;;
69937;SDS011;57248;47.320;15.998;2023-05-10T11:57:40;6.10;;;5.60;;
69937;SDS011;57248;47.320;15.998;2023-05-10T12:00:14;5.88;;;5.38;;
69937;SDS011;57248;47.320;15.998;2023-05-10T12:02:46;5.80;;;5.30;;
69937;SDS011;57248;47.320;15.998;2023-05-10T12:05:20;5.95;;;5.45;;
69937;SDS011;57248;47.320;15.998;2023-05-10T12:08:10;6.18;;;5.68;;
69937;SDS011;57248;47.320;15.998;2023-05-10T12:10:44;5.70;;;5.13;;
69937;SDS011;57248;47.320;15.998;2023-05-10T12:13:16;5.40;;;3.47;;
69937;SDS011;57248;47.320;15.998;2023-05-10T12:15:49;6.03;;;5.53;;
69937;SDS011;57248;47.320;15.998;2023-05-10T12:18:22;6.15;;;5.55;;
69937;SDS011;57248;47.320;15.998;2023-05-10T12:20:56;5.80;;;5.07;;
69937;SDS011;57248;47.320;15.998;2023-05-10T12:23:41;6.85;;;5.03;;
69937;SDS011;57248;47.320;15.998;2023-05-10T12:26:13;7.70;;;4.75;;
69937;SDS011;57248;47.320;15.998;2023-05-10T12:28:45;4.20;;;3.80;;
69937;SDS011;57248;47.320;15.998;2023-05-10T12:31:18;4.25;;;3.80;;
69937;SDS011;57248;47.320;15.998;2023-05-10T12:33:50;4.78;;;4.28;;
69937;SDS011;57248;47.320;15.998;2023-05-10T12:36:23;4.93;;;4.43;;
69937;SDS011;57248;47.320;15.998;2023-05-10T12:39:01;5.20;;;4.70;;
69937;SDS011;57248;47.320;15.998;2023-05-10T12:41:34;5.70;;;5.20;;
69937;SDS011;57248;47.320;15.998;2023-05-10T12:44:06;4.60;;;3.80;;
69937;SDS011;57248;47.320;15.998;2023-05-10T12:46:38;4.93;;;3.13;;
69937;SDS011;57248;47.320;15.998;2023-05-10T12:49:11;4.55;;;3.70;;
69937;SDS011;57248;47.320;15.998;2023-05-10T12:51:43;4.07;;;3.45;;
69937;SDS011;57248;47.320;15.998;2023-05-10T12:54:15;5.07;;;2.90;;
69937;SDS011;57248;47.320;15.998;2023-05-10T12:56:47;3.70;;;2.28;;
69937;SDS011;57248;47.320;15.998;2023-05-10T12:59:22;4.30;;;1.98;;
69937;SDS011;57248;47.320;15.998;2023-05-10T13:01:54;3.50;;;2.08;;
69937;SDS011;57248;47.320;15.998;2023-05-10T13:04:26;3.75;;;2.20;;
69937;SDS011;57248;47.320;15.998;2023-05-10T13:06:58;5.03;;;2.13;;
69937;SDS011;57248;47.320;15.998;2023-05-10T13:09:30;5.82;;;2.20;;
69937;SDS011;57248;47.320;15.998;2023-05-10T13:12:02;9.88;;;2.72;;
69937;SDS011;57248;47.320;15.998;2023-05-10T13:14:34;11.55;;;2.55;;
69937;SDS011;57248;47.320;15.998;2023-05-10T13:17:06;5.45;;;2.30;;
69937;SDS011;57248;47.320;15.998;2023-05-10T13:19:38;3.10;;;2.10;;
69937;SDS011;57248;47.320;15.998;2023-05-10T13:22:10;5.88;;;2.80;;
69937;SDS011;57248;47.320;15.998;2023-05-10T13:24:42;4.07;;;2.80;;
69937;SDS011;57248;47.320;15.998;2023-05-10T13:27:21;5.35;;;3.00;;
69937;SDS011;57248;47.320;15.998;2023-05-10T13:29:54;4.72;;;2.67;;
69937;SDS011;57248;47.320;15.998;2023-05-10T13:32:26;6.97;;;2.20;;
69937;SDS011;57248;47.320;15.998;2023-05-10T13:34:59;4.32;;;1.95;;
69937;SDS011;57248;47.320;15.998;2023-05-10T13:37:31;2.65;;;1.73;;
69937;SDS011;57248;47.320;15.998;2023-05-10T13:40:06;4.68;;;1.60;;
69937;SDS011;57248;47.320;15.998;2023-05-10T13:42:39;3.05;;;1.90;;
69937;SDS011;57248;47.320;15.998;2023-05-10T13:45:12;5.27;;;1.57;;
69937;SDS011;57248;47.320;15.998;2023-05-10T13:47:44;6.85;;;1.90;;
69937;SDS011;57248;47.320;15.998;2023-05-10T13:50:16;3.97;;;1.90;;
69937;SDS011;57248;47.320;15.998;2023-05-10T13:52:49;3.10;;;2.00;;
69937;SDS011;57248;47.320;15.998;2023-05-10T13:55:21;4.80;;;2.25;;
69937;SDS011;57248;47.320;15.998;2023-05-10T13:57:54;4.17;;;1.60;;
69937;SDS011;57248;47.320;15.998;2023-05-10T14:00:20;3.08;;;1.65;;
69937;SDS011;57248;47.320;15.998;2023-05-10T14:02:51;2.83;;;1.50;;
69937;SDS011;57248;47.320;15.998;2023-05-10T14:05:24;6.30;;;2.10;;
69937;SDS011;57248;47.320;15.998;2023-05-10T14:07:56;6.47;;;2.20;;
69937;SDS011;57248;47.320;15.998;2023-05-10T14:10:29;3.38;;;1.50;;
69937;SDS011;57248;47.320;15.998;2023-05-10T14:13:01;3.40;;;1.70;;
69937;SDS011;57248;47.320;15.998;2023-05-10T14:15:34;3.67;;;1.47;;
69937;SDS011;57248;47.320;15.998;2023-05-10T14:18:06;3.38;;;1.67;;
69937;SDS011;57248;47.320;15.998;2023-05-10T14:20:38;3.05;;;1.58;;
69937;SDS011;57248;47.320;15.998;2023-05-10T14:23:11;3.72;;;1.52;;
69937;SDS011;57248;47.320;15.998;2023-05-10T14:25:52;3.25;;;1.73;;
69937;SDS011;57248;47.320;15.998;2023-05-10T14:28:25;3.80;;;1.50;;
69937;SDS011;57248;47.320;15.998;2023-05-10T14:30:58;2.90;;;1.50;;
69937;SDS011;57248;47.320;15.998;2023-05-10T14:33:30;3.53;;;1.95;;
69937;SDS011;57248;47.320;15.998;2023-05-10T14:36:02;4.75;;;2.20;;
69937;SDS011;57248;47.320;15.998;2023-05-10T14:38:35;4.97;;;1.80;;
69937;SDS011;57248;47.320;15.998;2023-05-10T14:41:07;4.40;;;2.10;;
69937;SDS011;57248;47.320;15.998;2023-05-10T14:43:39;4.32;;;2.00;;
69937;SDS011;57248;47.320;15.998;2023-05-10T14:46:13;6.88;;;2.00;;
69937;SDS011;57248;47.320;15.998;2023-05-10T14:48:45;3.63;;;1.80;;
69937;SDS011;57248;47.320;15.998;2023-05-10T14:51:17;5.07;;;2.20;;
69937;SDS011;57248;47.320;15.998;2023-05-10T14:53:53;8.03;;;2.00;;
69937;SDS011;57248;47.320;15.998;2023-05-10T14:56:25;5.10;;;2.40;;
69937;SDS011;57248;47.320;15.998;2023-05-10T14:58:57;4.90;;;2.67;;
69937;SDS011;57248;47.320;15.998;2023-05-10T15:01:29;8.25;;;2.60;;
69937;SDS011;57248;47.320;15.998;2023-05-10T15:04:03;4.40;;;2.10;;
69937;SDS011;57248;47.320;15.998;2023-05-10T15:06:35;4.77;;;2.43;;
69937;SDS011;57248;47.320;15.998;2023-05-10T15:09:08;4.65;;;2.20;;
69937;SDS011;57248;47.320;15.998;2023-05-10T15:11:40;3.60;;;2.22;;
69937;SDS011;57248;47.320;15.998;2023-05-10T15:14:12;5.20;;;2.22;;
69937;SDS011;57248;47.320;15.998;2023-05-10T15:16:46;3.38;;;1.90;;
69937;SDS011;57248;47.320;15.998;2023-05-10T15:19:19;3.63;;;2.00;;
69937;SDS011;57248;47.320;15.998;2023-05-10T15:21:52;4.03;;;2.00;;
69937;SDS011;57248;47.320;15.998;2023-05-10T15:24:17;7.07;;;2.90;;
69937;SDS011;57248;47.320;15.998;2023-05-10T15:26:49;4.43;;;2.30;;